sensor_id;sensor_type;location;lat;lon;timestamp;pressure;altitude;pressure_sealevel;temperature
22322;BMP180;11328;53.928;18.522;2022-09-09T00:00:17;100080.00;;;18.30
22322;BMP180;11328;53.928;18.522;2022-09-09T00:02:59;100079.00;;;18.30
22322;BMP180;11328;53.928;18.522;2022-09-09T00:08:45;100073.00;;;18.30
22322;BMP180;11328;53.928;18.522;2022-09-09T00:11:27;100069.00;;;18.40
22322;BMP180;11328;53.928;18.522;2022-09-09T00:14:03;100074.00;;;18.40
22322;BMP180;11328;53.928;18.522;2022-09-09T00:16:39;100078.00;;;18.50
22322;BMP180;11328;53.928;18.522;2022-09-09T00:19:22;100083.00;;;18.50
22322;BMP180;11328;53.928;18.522;2022-09-09T00:24:53;100080.00;;;18.50
22322;BMP180;11328;53.928;18.522;2022-09-09T00:27:36;100090.00;;;18.50
22322;BMP180;11328;53.928;18.522;2022-09-09T00:30:26;100069.00;;;18.50
22322;BMP180;11328;53.928;18.522;2022-09-09T00:32:59;100081.00;;;18.50
22322;BMP180;11328;53.928;18.522;2022-09-09T00:35:36;100081.00;;;18.60
22322;BMP180;11328;53.928;18.522;2022-09-09T00:38:25;100087.00;;;18.60
22322;BMP180;11328;53.928;18.522;2022-09-09T00:41:19;100077.00;;;18.60
22322;BMP180;11328;53.928;18.522;2022-09-09T00:44:33;100074.00;;;18.60
22322;BMP180;11328;53.928;18.522;2022-09-09T00:50:02;100052.00;;;18.60
22322;BMP180;11328;53.928;18.522;2022-09-09T00:56:03;100076.00;;;18.60
22322;BMP180;11328;53.928;18.522;2022-09-09T00:58:33;100076.00;;;18.60
22322;BMP180;11328;53.928;18.522;2022-09-09T01:01:11;100081.00;;;18.70
22322;BMP180;11328;53.928;18.522;2022-09-09T01:03:53;100069.00;;;18.70
22322;BMP180;11328;53.928;18.522;2022-09-09T01:06:31;100083.00;;;18.70
22322;BMP180;11328;53.928;18.522;2022-09-09T01:12:11;100094.00;;;18.80
22322;BMP180;11328;53.928;18.522;2022-09-09T01:14:51;100097.00;;;18.80
22322;BMP180;11328;53.928;18.522;2022-09-09T01:17:31;100114.00;;;18.90
22322;BMP180;11328;53.928;18.522;2022-09-09T01:28:49;100144.00;;;18.20
22322;BMP180;11328;53.928;18.522;2022-09-09T01:31:28;100146.00;;;18.10
22322;BMP180;11328;53.928;18.522;2022-09-09T01:33:56;100137.00;;;18.00
22322;BMP180;11328;53.928;18.522;2022-09-09T01:36:43;100137.00;;;17.80
22322;BMP180;11328;53.928;18.522;2022-09-09T01:39:11;100141.00;;;17.80
22322;BMP180;11328;53.928;18.522;2022-09-09T01:41:39;100135.00;;;17.60
22322;BMP180;11328;53.928;18.522;2022-09-09T01:44:08;100140.00;;;17.50
22322;BMP180;11328;53.928;18.522;2022-09-09T01:46:35;100142.00;;;17.60
22322;BMP180;11328;53.928;18.522;2022-09-09T01:49:05;100132.00;;;17.70
22322;BMP180;11328;53.928;18.522;2022-09-09T01:51:36;100139.00;;;17.70
22322;BMP180;11328;53.928;18.522;2022-09-09T01:54:06;100134.00;;;17.80
22322;BMP180;11328;53.928;18.522;2022-09-09T01:56:50;100142.00;;;17.90
22322;BMP180;11328;53.928;18.522;2022-09-09T02:05:40;100149.00;;;17.90
22322;BMP180;11328;53.928;18.522;2022-09-09T02:08:13;100110.00;;;17.80
22322;BMP180;11328;53.928;18.522;2022-09-09T02:13:36;100158.00;;;17.40
22322;BMP180;11328;53.928;18.522;2022-09-09T02:18:57;100160.00;;;17.50
22322;BMP180;11328;53.928;18.522;2022-09-09T02:21:31;100166.00;;;17.40
22322;BMP180;11328;53.928;18.522;2022-09-09T02:24:04;100168.00;;;17.30
22322;BMP180;11328;53.928;18.522;2022-09-09T02:26:35;100175.00;;;17.20
22322;BMP180;11328;53.928;18.522;2022-09-09T02:29:08;100182.00;;;17.10
22322;BMP180;11328;53.928;18.522;2022-09-09T02:31:38;100185.00;;;16.80
22322;BMP180;11328;53.928;18.522;2022-09-09T02:34:09;100188.00;;;16.80
22322;BMP180;11328;53.928;18.522;2022-09-09T02:36:42;100193.00;;;16.60
22322;BMP180;11328;53.928;18.522;2022-09-09T02:39:10;100185.00;;;16.40
22322;BMP180;11328;53.928;18.522;2022-09-09T02:41:41;100185.00;;;16.40
22322;BMP180;11328;53.928;18.522;2022-09-09T02:44:14;100191.00;;;16.30
22322;BMP180;11328;53.928;18.522;2022-09-09T02:49:59;100172.00;;;16.10
22322;BMP180;11328;53.928;18.522;2022-09-09T02:55:46;100148.00;;;15.80
22322;BMP180;11328;53.928;18.522;2022-09-09T02:58:17;100157.00;;;15.70
22322;BMP180;11328;53.928;18.522;2022-09-09T03:00:50;100144.00;;;15.60
22322;BMP180;11328;53.928;18.522;2022-09-09T03:03:19;100153.00;;;15.50
22322;BMP180;11328;53.928;18.522;2022-09-09T03:05:46;100151.00;;;15.40
22322;BMP180;11328;53.928;18.522;2022-09-09T03:08:13;100156.00;;;15.40
22322;BMP180;11328;53.928;18.522;2022-09-09T03:10:40;100134.00;;;15.40
22322;BMP180;11328;53.928;18.522;2022-09-09T03:13:08;100141.00;;;15.30
22322;BMP180;11328;53.928;18.522;2022-09-09T03:15:35;100141.00;;;15.30
22322;BMP180;11328;53.928;18.522;2022-09-09T03:18:02;100148.00;;;15.30
22322;BMP180;11328;53.928;18.522;2022-09-09T03:20:30;100137.00;;;15.30
22322;BMP180;11328;53.928;18.522;2022-09-09T03:23:00;100146.00;;;15.30
22322;BMP180;11328;53.928;18.522;2022-09-09T03:25:27;100145.00;;;15.30
22322;BMP180;11328;53.928;18.522;2022-09-09T03:27:55;100148.00;;;15.30
22322;BMP180;11328;53.928;18.522;2022-09-09T03:30:25;100137.00;;;15.40
22322;BMP180;11328;53.928;18.522;2022-09-09T03:32:53;100140.00;;;15.40
22322;BMP180;11328;53.928;18.522;2022-09-09T03:35:20;100135.00;;;15.40
22322;BMP180;11328;53.928;18.522;2022-09-09T03:37:47;100129.00;;;15.40
22322;BMP180;11328;53.928;18.522;2022-09-09T03:40:14;100129.00;;;15.50
22322;BMP180;11328;53.928;18.522;2022-09-09T03:42:41;100132.00;;;15.50
22322;BMP180;11328;53.928;18.522;2022-09-09T03:45:11;100131.00;;;15.50
22322;BMP180;11328;53.928;18.522;2022-09-09T03:47:38;100133.00;;;15.50
22322;BMP180;11328;53.928;18.522;2022-09-09T03:50:07;100132.00;;;15.50
22322;BMP180;11328;53.928;18.522;2022-09-09T03:52:38;100132.00;;;15.50
22322;BMP180;11328;53.928;18.522;2022-09-09T03:55:06;100125.00;;;15.50
22322;BMP180;11328;53.928;18.522;2022-09-09T03:57:34;100132.00;;;15.50
22322;BMP180;11328;53.928;18.522;2022-09-09T04:00:04;100132.00;;;15.50
22322;BMP180;11328;53.928;18.522;2022-09-09T04:02:32;100137.00;;;15.50
22322;BMP180;11328;53.928;18.522;2022-09-09T04:04:58;100128.00;;;15.40
22322;BMP180;11328;53.928;18.522;2022-09-09T04:07:26;100126.00;;;15.30
22322;BMP180;11328;53.928;18.522;2022-09-09T04:09:54;100129.00;;;15.20
22322;BMP180;11328;53.928;18.522;2022-09-09T04:12:21;100125.00;;;15.30
22322;BMP180;11328;53.928;18.522;2022-09-09T04:14:49;100121.00;;;15.20
22322;BMP180;11328;53.928;18.522;2022-09-09T04:17:16;100124.00;;;15.10
22322;BMP180;11328;53.928;18.522;2022-09-09T04:19:44;100127.00;;;15.00
22322;BMP180;11328;53.928;18.522;2022-09-09T04:22:10;100128.00;;;15.10
22322;BMP180;11328;53.928;18.522;2022-09-09T04:24:37;100132.00;;;15.10
22322;BMP180;11328;53.928;18.522;2022-09-09T04:27:04;100122.00;;;14.80
22322;BMP180;11328;53.928;18.522;2022-09-09T04:29:31;100129.00;;;14.70
22322;BMP180;11328;53.928;18.522;2022-09-09T04:31:59;100126.00;;;14.60
22322;BMP180;11328;53.928;18.522;2022-09-09T04:34:26;100126.00;;;14.50
22322;BMP180;11328;53.928;18.522;2022-09-09T04:36:53;100126.00;;;14.50
22322;BMP180;11328;53.928;18.522;2022-09-09T04:39:20;100127.00;;;14.50
22322;BMP180;11328;53.928;18.522;2022-09-09T04:41:46;100127.00;;;14.50
22322;BMP180;11328;53.928;18.522;2022-09-09T04:44:14;100128.00;;;14.40
22322;BMP180;11328;53.928;18.522;2022-09-09T04:46:40;100132.00;;;14.50
22322;BMP180;11328;53.928;18.522;2022-09-09T04:49:08;100129.00;;;14.60
22322;BMP180;11328;53.928;18.522;2022-09-09T04:51:40;100133.00;;;14.50
22322;BMP180;11328;53.928;18.522;2022-09-09T04:54:07;100129.00;;;14.40
22322;BMP180;11328;53.928;18.522;2022-09-09T04:56:34;100124.00;;;14.50
22322;BMP180;11328;53.928;18.522;2022-09-09T04:59:01;100134.00;;;14.40
22322;BMP180;11328;53.928;18.522;2022-09-09T05:01:29;100105.00;;;14.30
22322;BMP180;11328;53.928;18.522;2022-09-09T05:03:56;100127.00;;;14.30
22322;BMP180;11328;53.928;18.522;2022-09-09T05:06:24;100135.00;;;14.30
22322;BMP180;11328;53.928;18.522;2022-09-09T05:08:51;100127.00;;;14.40
22322;BMP180;11328;53.928;18.522;2022-09-09T05:11:25;100133.00;;;14.40
22322;BMP180;11328;53.928;18.522;2022-09-09T05:13:54;100140.00;;;14.40
22322;BMP180;11328;53.928;18.522;2022-09-09T05:16:21;100126.00;;;14.30
22322;BMP180;11328;53.928;18.522;2022-09-09T05:18:50;100129.00;;;14.40
22322;BMP180;11328;53.928;18.522;2022-09-09T05:21:22;100129.00;;;14.40
22322;BMP180;11328;53.928;18.522;2022-09-09T05:23:49;100131.00;;;14.40
22322;BMP180;11328;53.928;18.522;2022-09-09T05:26:21;100129.00;;;14.30
22322;BMP180;11328;53.928;18.522;2022-09-09T05:28:48;100131.00;;;14.30
22322;BMP180;11328;53.928;18.522;2022-09-09T05:31:17;100130.00;;;14.30
22322;BMP180;11328;53.928;18.522;2022-09-09T05:33:46;100127.00;;;14.30
22322;BMP180;11328;53.928;18.522;2022-09-09T05:36:18;100131.00;;;14.30
22322;BMP180;11328;53.928;18.522;2022-09-09T05:38:45;100125.00;;;14.30
22322;BMP180;11328;53.928;18.522;2022-09-09T05:41:13;100121.00;;;14.30
22322;BMP180;11328;53.928;18.522;2022-09-09T05:43:44;100126.00;;;14.30
22322;BMP180;11328;53.928;18.522;2022-09-09T05:46:16;100134.00;;;14.30
22322;BMP180;11328;53.928;18.522;2022-09-09T05:48:46;100125.00;;;14.20
22322;BMP180;11328;53.928;18.522;2022-09-09T05:51:16;100135.00;;;14.30
22322;BMP180;11328;53.928;18.522;2022-09-09T05:53:45;100129.00;;;14.40
22322;BMP180;11328;53.928;18.522;2022-09-09T05:56:22;100136.00;;;14.30
22322;BMP180;11328;53.928;18.522;2022-09-09T05:58:49;100129.00;;;14.40
22322;BMP180;11328;53.928;18.522;2022-09-09T06:01:30;100138.00;;;14.30
22322;BMP180;11328;53.928;18.522;2022-09-09T06:03:59;100133.00;;;14.20
22322;BMP180;11328;53.928;18.522;2022-09-09T06:06:31;100134.00;;;14.20
22322;BMP180;11328;53.928;18.522;2022-09-09T06:09:01;100137.00;;;14.20
22322;BMP180;11328;53.928;18.522;2022-09-09T06:11:30;100140.00;;;14.20
22322;BMP180;11328;53.928;18.522;2022-09-09T06:13:58;100143.00;;;14.40
22322;BMP180;11328;53.928;18.522;2022-09-09T06:16:28;100140.00;;;14.40
22322;BMP180;11328;53.928;18.522;2022-09-09T06:18:56;100140.00;;;14.40
22322;BMP180;11328;53.928;18.522;2022-09-09T06:21:31;100147.00;;;14.30
22322;BMP180;11328;53.928;18.522;2022-09-09T06:24:00;100148.00;;;14.20
22322;BMP180;11328;53.928;18.522;2022-09-09T06:26:31;100147.00;;;14.30
22322;BMP180;11328;53.928;18.522;2022-09-09T06:29:01;100147.00;;;14.40
22322;BMP180;11328;53.928;18.522;2022-09-09T06:31:32;100143.00;;;14.30
22322;BMP180;11328;53.928;18.522;2022-09-09T06:34:06;100145.00;;;14.30
22322;BMP180;11328;53.928;18.522;2022-09-09T06:36:36;100142.00;;;14.30
22322;BMP180;11328;53.928;18.522;2022-09-09T06:39:05;100154.00;;;14.30
22322;BMP180;11328;53.928;18.522;2022-09-09T06:41:40;100145.00;;;14.40
22322;BMP180;11328;53.928;18.522;2022-09-09T06:44:07;100147.00;;;14.30
22322;BMP180;11328;53.928;18.522;2022-09-09T06:46:34;100151.00;;;14.30
22322;BMP180;11328;53.928;18.522;2022-09-09T06:49:02;100156.00;;;14.40
22322;BMP180;11328;53.928;18.522;2022-09-09T06:51:33;100153.00;;;14.30
22322;BMP180;11328;53.928;18.522;2022-09-09T06:54:02;100151.00;;;14.40
22322;BMP180;11328;53.928;18.522;2022-09-09T06:56:33;100149.00;;;14.50
22322;BMP180;11328;53.928;18.522;2022-09-09T06:59:03;100149.00;;;14.40
22322;BMP180;11328;53.928;18.522;2022-09-09T07:01:34;100150.00;;;14.30
22322;BMP180;11328;53.928;18.522;2022-09-09T07:04:03;100154.00;;;14.40
22322;BMP180;11328;53.928;18.522;2022-09-09T07:06:35;100154.00;;;14.20
22322;BMP180;11328;53.928;18.522;2022-09-09T07:09:07;100141.00;;;14.20
22322;BMP180;11328;53.928;18.522;2022-09-09T07:11:41;100154.00;;;14.10
22322;BMP180;11328;53.928;18.522;2022-09-09T07:14:09;100149.00;;;14.20
22322;BMP180;11328;53.928;18.522;2022-09-09T07:16:41;100148.00;;;14.10
22322;BMP180;11328;53.928;18.522;2022-09-09T07:19:09;100150.00;;;14.10
22322;BMP180;11328;53.928;18.522;2022-09-09T07:21:37;100156.00;;;14.10
22322;BMP180;11328;53.928;18.522;2022-09-09T07:24:04;100157.00;;;14.20
22322;BMP180;11328;53.928;18.522;2022-09-09T07:26:34;100162.00;;;14.20
22322;BMP180;11328;53.928;18.522;2022-09-09T07:29:01;100161.00;;;14.20
22322;BMP180;11328;53.928;18.522;2022-09-09T07:31:35;100164.00;;;14.30
22322;BMP180;11328;53.928;18.522;2022-09-09T07:34:04;100184.00;;;14.40
22322;BMP180;11328;53.928;18.522;2022-09-09T07:36:37;100174.00;;;14.30
22322;BMP180;11328;53.928;18.522;2022-09-09T07:39:11;100174.00;;;14.40
22322;BMP180;11328;53.928;18.522;2022-09-09T07:41:43;100178.00;;;14.50
22322;BMP180;11328;53.928;18.522;2022-09-09T07:44:20;100160.00;;;14.40
22322;BMP180;11328;53.928;18.522;2022-09-09T07:46:51;100181.00;;;14.40
22322;BMP180;11328;53.928;18.522;2022-09-09T07:49:18;100174.00;;;14.40
22322;BMP180;11328;53.928;18.522;2022-09-09T07:51:54;100172.00;;;14.50
22322;BMP180;11328;53.928;18.522;2022-09-09T07:54:21;100183.00;;;14.60
22322;BMP180;11328;53.928;18.522;2022-09-09T07:56:51;100191.00;;;14.60
22322;BMP180;11328;53.928;18.522;2022-09-09T07:59:18;100190.00;;;14.70
22322;BMP180;11328;53.928;18.522;2022-09-09T08:01:49;100191.00;;;14.70
22322;BMP180;11328;53.928;18.522;2022-09-09T08:04:23;100188.00;;;14.70
22322;BMP180;11328;53.928;18.522;2022-09-09T08:07:00;100192.00;;;14.60
22322;BMP180;11328;53.928;18.522;2022-09-09T08:09:29;100194.00;;;14.60
22322;BMP180;11328;53.928;18.522;2022-09-09T08:11:58;100196.00;;;14.60
22322;BMP180;11328;53.928;18.522;2022-09-09T08:14:25;100201.00;;;14.60
22322;BMP180;11328;53.928;18.522;2022-09-09T08:16:53;100202.00;;;14.80
22322;BMP180;11328;53.928;18.522;2022-09-09T08:19:21;100204.00;;;14.80
22322;BMP180;11328;53.928;18.522;2022-09-09T08:21:47;100201.00;;;14.80
22322;BMP180;11328;53.928;18.522;2022-09-09T08:24:15;100209.00;;;14.90
22322;BMP180;11328;53.928;18.522;2022-09-09T08:26:45;100207.00;;;14.90
22322;BMP180;11328;53.928;18.522;2022-09-09T08:29:14;100199.00;;;15.00
22322;BMP180;11328;53.928;18.522;2022-09-09T08:31:50;100201.00;;;15.00
22322;BMP180;11328;53.928;18.522;2022-09-09T08:34:17;100208.00;;;15.00
22322;BMP180;11328;53.928;18.522;2022-09-09T08:36:48;100212.00;;;15.10
22322;BMP180;11328;53.928;18.522;2022-09-09T08:39:19;100210.00;;;15.10
22322;BMP180;11328;53.928;18.522;2022-09-09T08:48:07;100209.00;;;15.20
22322;BMP180;11328;53.928;18.522;2022-09-09T08:50:38;100193.00;;;15.30
22322;BMP180;11328;53.928;18.522;2022-09-09T08:53:22;100207.00;;;15.30
22322;BMP180;11328;53.928;18.522;2022-09-09T08:55:56;100201.00;;;15.30
22322;BMP180;11328;53.928;18.522;2022-09-09T08:58:29;100206.00;;;15.40
22322;BMP180;11328;53.928;18.522;2022-09-09T09:04:04;100210.00;;;15.40
22322;BMP180;11328;53.928;18.522;2022-09-09T09:12:35;100215.00;;;15.50
22322;BMP180;11328;53.928;18.522;2022-09-09T09:15:31;100216.00;;;15.50
22322;BMP180;11328;53.928;18.522;2022-09-09T09:17:58;100220.00;;;15.60
22322;BMP180;11328;53.928;18.522;2022-09-09T09:21:04;100226.00;;;15.80
22322;BMP180;11328;53.928;18.522;2022-09-09T09:23:48;100227.00;;;15.70
22322;BMP180;11328;53.928;18.522;2022-09-09T09:26:18;100218.00;;;15.70
22322;BMP180;11328;53.928;18.522;2022-09-09T09:28:45;100226.00;;;15.70
22322;BMP180;11328;53.928;18.522;2022-09-09T09:31:13;100230.00;;;15.70
22322;BMP180;11328;53.928;18.522;2022-09-09T09:36:08;100225.00;;;15.90
22322;BMP180;11328;53.928;18.522;2022-09-09T09:38:36;100222.00;;;15.90
22322;BMP180;11328;53.928;18.522;2022-09-09T09:44:03;100218.00;;;15.80
22322;BMP180;11328;53.928;18.522;2022-09-09T09:46:31;100210.00;;;15.70
22322;BMP180;11328;53.928;18.522;2022-09-09T09:49:09;100223.00;;;15.80
22322;BMP180;11328;53.928;18.522;2022-09-09T09:51:36;100227.00;;;15.80
22322;BMP180;11328;53.928;18.522;2022-09-09T09:56:43;100223.00;;;16.00
22322;BMP180;11328;53.928;18.522;2022-09-09T09:59:34;100225.00;;;16.00
22322;BMP180;11328;53.928;18.522;2022-09-09T10:02:21;100224.00;;;15.90
22322;BMP180;11328;53.928;18.522;2022-09-09T10:05:26;100228.00;;;15.90
22322;BMP180;11328;53.928;18.522;2022-09-09T10:08:11;100222.00;;;16.00
22322;BMP180;11328;53.928;18.522;2022-09-09T10:11:25;100239.00;;;16.00
22322;BMP180;11328;53.928;18.522;2022-09-09T10:20:16;100227.00;;;16.20
22322;BMP180;11328;53.928;18.522;2022-09-09T10:22:52;100229.00;;;16.10
22322;BMP180;11328;53.928;18.522;2022-09-09T10:32:07;100229.00;;;16.40
22322;BMP180;11328;53.928;18.522;2022-09-09T10:35:18;100237.00;;;16.30
22322;BMP180;11328;53.928;18.522;2022-09-09T10:38:17;100241.00;;;16.40
22322;BMP180;11328;53.928;18.522;2022-09-09T10:57:46;100229.00;;;16.40
22322;BMP180;11328;53.928;18.522;2022-09-09T11:00:42;100238.00;;;16.50
22322;BMP180;11328;53.928;18.522;2022-09-09T11:03:26;100243.00;;;16.50
22322;BMP180;11328;53.928;18.522;2022-09-09T11:06:11;100246.00;;;16.50
22322;BMP180;11328;53.928;18.522;2022-09-09T11:08:42;100253.00;;;16.60
22322;BMP180;11328;53.928;18.522;2022-09-09T11:13:54;100262.00;;;16.50
22322;BMP180;11328;53.928;18.522;2022-09-09T11:16:58;100260.00;;;16.50
22322;BMP180;11328;53.928;18.522;2022-09-09T11:19:33;100252.00;;;16.50
22322;BMP180;11328;53.928;18.522;2022-09-09T11:22:17;100256.00;;;16.60
22322;BMP180;11328;53.928;18.522;2022-09-09T11:25:23;100258.00;;;16.60
22322;BMP180;11328;53.928;18.522;2022-09-09T11:33:58;100259.00;;;16.60
22322;BMP180;11328;53.928;18.522;2022-09-09T11:39:58;100252.00;;;16.60
22322;BMP180;11328;53.928;18.522;2022-09-09T11:42:30;100259.00;;;16.70
22322;BMP180;11328;53.928;18.522;2022-09-09T11:44:57;100262.00;;;16.70
22322;BMP180;11328;53.928;18.522;2022-09-09T11:47:27;100264.00;;;16.70
22322;BMP180;11328;53.928;18.522;2022-09-09T11:50:30;100269.00;;;16.60
22322;BMP180;11328;53.928;18.522;2022-09-09T11:53:18;100268.00;;;16.60
22322;BMP180;11328;53.928;18.522;2022-09-09T11:55:59;100272.00;;;16.60
22322;BMP180;11328;53.928;18.522;2022-09-09T11:58:26;100269.00;;;16.70
22322;BMP180;11328;53.928;18.522;2022-09-09T12:00:54;100260.00;;;16.70
22322;BMP180;11328;53.928;18.522;2022-09-09T12:03:51;100273.00;;;16.50
22322;BMP180;11328;53.928;18.522;2022-09-09T12:06:33;100269.00;;;16.50
22322;BMP180;11328;53.928;18.522;2022-09-09T12:09:25;100241.00;;;16.60
22322;BMP180;11328;53.928;18.522;2022-09-09T12:12:07;100279.00;;;16.70
22322;BMP180;11328;53.928;18.522;2022-09-09T12:14:58;100278.00;;;16.60
22322;BMP180;11328;53.928;18.522;2022-09-09T12:17:29;100279.00;;;16.60
22322;BMP180;11328;53.928;18.522;2022-09-09T12:29:09;100282.00;;;16.60
22322;BMP180;11328;53.928;18.522;2022-09-09T12:31:44;100285.00;;;16.60
22322;BMP180;11328;53.928;18.522;2022-09-09T12:34:35;100282.00;;;16.60
22322;BMP180;11328;53.928;18.522;2022-09-09T12:37:25;100289.00;;;16.70
22322;BMP180;11328;53.928;18.522;2022-09-09T12:40:00;100277.00;;;16.70
22322;BMP180;11328;53.928;18.522;2022-09-09T12:42:29;100273.00;;;16.70
22322;BMP180;11328;53.928;18.522;2022-09-09T12:45:00;100281.00;;;16.70
22322;BMP180;11328;53.928;18.522;2022-09-09T12:47:41;100280.00;;;16.70
22322;BMP180;11328;53.928;18.522;2022-09-09T12:50:19;100282.00;;;16.70
22322;BMP180;11328;53.928;18.522;2022-09-09T12:52:51;100270.00;;;16.60
22322;BMP180;11328;53.928;18.522;2022-09-09T12:55:24;100284.00;;;16.60
22322;BMP180;11328;53.928;18.522;2022-09-09T12:57:52;100277.00;;;16.60
22322;BMP180;11328;53.928;18.522;2022-09-09T13:00:23;100273.00;;;16.70
22322;BMP180;11328;53.928;18.522;2022-09-09T13:02:54;100278.00;;;16.70
22322;BMP180;11328;53.928;18.522;2022-09-09T13:05:48;100277.00;;;16.70
22322;BMP180;11328;53.928;18.522;2022-09-09T13:08:16;100281.00;;;16.90
22322;BMP180;11328;53.928;18.522;2022-09-09T13:11:01;100276.00;;;16.90
22322;BMP180;11328;53.928;18.522;2022-09-09T13:13:43;100275.00;;;17.00
22322;BMP180;11328;53.928;18.522;2022-09-09T13:16:30;100278.00;;;17.00
22322;BMP180;11328;53.928;18.522;2022-09-09T13:19:09;100264.00;;;16.90
22322;BMP180;11328;53.928;18.522;2022-09-09T13:21:39;100262.00;;;17.00
22322;BMP180;11328;53.928;18.522;2022-09-09T13:26:59;100258.00;;;17.00
22322;BMP180;11328;53.928;18.522;2022-09-09T13:29:31;100252.00;;;17.10
22322;BMP180;11328;53.928;18.522;2022-09-09T13:32:15;100249.00;;;17.10
22322;BMP180;11328;53.928;18.522;2022-09-09T13:37:37;100252.00;;;17.20
22322;BMP180;11328;53.928;18.522;2022-09-09T13:40:14;100217.00;;;17.30
22322;BMP180;11328;53.928;18.522;2022-09-09T13:42:44;100238.00;;;17.20
22322;BMP180;11328;53.928;18.522;2022-09-09T13:45:19;100243.00;;;17.20
22322;BMP180;11328;53.928;18.522;2022-09-09T13:47:47;100251.00;;;17.20
22322;BMP180;11328;53.928;18.522;2022-09-09T13:50:25;100249.00;;;17.30
22322;BMP180;11328;53.928;18.522;2022-09-09T13:52:55;100255.00;;;17.30
22322;BMP180;11328;53.928;18.522;2022-09-09T13:55:25;100260.00;;;17.50
22322;BMP180;11328;53.928;18.522;2022-09-09T13:57:57;100257.00;;;17.60
22322;BMP180;11328;53.928;18.522;2022-09-09T14:00:25;100258.00;;;17.60
22322;BMP180;11328;53.928;18.522;2022-09-09T14:02:52;100251.00;;;17.70
22322;BMP180;11328;53.928;18.522;2022-09-09T14:05:22;100237.00;;;17.70
22322;BMP180;11328;53.928;18.522;2022-09-09T14:07:50;100261.00;;;17.60
22322;BMP180;11328;53.928;18.522;2022-09-09T14:10:19;100265.00;;;17.70
22322;BMP180;11328;53.928;18.522;2022-09-09T14:12:46;100257.00;;;17.70
22322;BMP180;11328;53.928;18.522;2022-09-09T14:15:13;100254.00;;;17.60
22322;BMP180;11328;53.928;18.522;2022-09-09T14:17:42;100265.00;;;17.60
22322;BMP180;11328;53.928;18.522;2022-09-09T14:20:10;100258.00;;;17.70
22322;BMP180;11328;53.928;18.522;2022-09-09T14:22:38;100260.00;;;17.80
22322;BMP180;11328;53.928;18.522;2022-09-09T14:25:08;100257.00;;;17.70
22322;BMP180;11328;53.928;18.522;2022-09-09T14:27:35;100259.00;;;17.70
22322;BMP180;11328;53.928;18.522;2022-09-09T14:30:02;100259.00;;;17.80
22322;BMP180;11328;53.928;18.522;2022-09-09T14:32:30;100254.00;;;17.70
22322;BMP180;11328;53.928;18.522;2022-09-09T14:34:58;100238.00;;;17.70
22322;BMP180;11328;53.928;18.522;2022-09-09T14:37:25;100253.00;;;17.70
22322;BMP180;11328;53.928;18.522;2022-09-09T14:39:52;100253.00;;;17.70
22322;BMP180;11328;53.928;18.522;2022-09-09T14:42:20;100236.00;;;17.80
22322;BMP180;11328;53.928;18.522;2022-09-09T14:44:48;100265.00;;;17.70
22322;BMP180;11328;53.928;18.522;2022-09-09T14:47:15;100267.00;;;17.70
22322;BMP180;11328;53.928;18.522;2022-09-09T14:49:42;100271.00;;;17.70
22322;BMP180;11328;53.928;18.522;2022-09-09T14:52:12;100269.00;;;17.80
22322;BMP180;11328;53.928;18.522;2022-09-09T14:54:39;100272.00;;;17.80
22322;BMP180;11328;53.928;18.522;2022-09-09T14:57:06;100262.00;;;17.80
22322;BMP180;11328;53.928;18.522;2022-09-09T14:59:33;100268.00;;;17.80
22322;BMP180;11328;53.928;18.522;2022-09-09T15:02:01;100263.00;;;17.90
22322;BMP180;11328;53.928;18.522;2022-09-09T15:04:31;100265.00;;;18.00
22322;BMP180;11328;53.928;18.522;2022-09-09T15:06:58;100259.00;;;17.80
22322;BMP180;11328;53.928;18.522;2022-09-09T15:09:25;100258.00;;;17.70
22322;BMP180;11328;53.928;18.522;2022-09-09T15:11:52;100251.00;;;17.50
22322;BMP180;11328;53.928;18.522;2022-09-09T15:14:19;100250.00;;;17.60
22322;BMP180;11328;53.928;18.522;2022-09-09T15:16:51;100261.00;;;17.60
22322;BMP180;11328;53.928;18.522;2022-09-09T15:19:18;100262.00;;;17.50
22322;BMP180;11328;53.928;18.522;2022-09-09T15:21:45;100250.00;;;17.40
22322;BMP180;11328;53.928;18.522;2022-09-09T15:24:12;100263.00;;;17.40
22322;BMP180;11328;53.928;18.522;2022-09-09T15:26:40;100248.00;;;17.40
22322;BMP180;11328;53.928;18.522;2022-09-09T15:29:08;100259.00;;;17.40
22322;BMP180;11328;53.928;18.522;2022-09-09T15:31:36;100243.00;;;17.40
22322;BMP180;11328;53.928;18.522;2022-09-09T15:34:06;100261.00;;;17.40
22322;BMP180;11328;53.928;18.522;2022-09-09T15:36:38;100273.00;;;17.50
22322;BMP180;11328;53.928;18.522;2022-09-09T15:39:11;100268.00;;;17.40
22322;BMP180;11328;53.928;18.522;2022-09-09T15:41:40;100266.00;;;17.40
22322;BMP180;11328;53.928;18.522;2022-09-09T15:44:08;100259.00;;;17.50
22322;BMP180;11328;53.928;18.522;2022-09-09T15:46:50;100265.00;;;17.40
22322;BMP180;11328;53.928;18.522;2022-09-09T15:49:25;100270.00;;;17.40
22322;BMP180;11328;53.928;18.522;2022-09-09T15:51:55;100272.00;;;17.30
22322;BMP180;11328;53.928;18.522;2022-09-09T15:54:26;100257.00;;;17.40
22322;BMP180;11328;53.928;18.522;2022-09-09T15:56:57;100251.00;;;17.40
22322;BMP180;11328;53.928;18.522;2022-09-09T15:59:28;100273.00;;;17.30
22322;BMP180;11328;53.928;18.522;2022-09-09T16:02:02;100274.00;;;17.40
22322;BMP180;11328;53.928;18.522;2022-09-09T16:04:30;100272.00;;;17.60
22322;BMP180;11328;53.928;18.522;2022-09-09T16:07:04;100272.00;;;17.60
22322;BMP180;11328;53.928;18.522;2022-09-09T16:09:32;100270.00;;;17.60
22322;BMP180;11328;53.928;18.522;2022-09-09T16:12:01;100267.00;;;17.60
22322;BMP180;11328;53.928;18.522;2022-09-09T16:14:29;100279.00;;;17.50
22322;BMP180;11328;53.928;18.522;2022-09-09T16:17:02;100265.00;;;17.50